Time;durP1;ratioP1;P1;durP2;ratioP2;P2;SDS_P1;SDS_P2;PMS_P1;PMS_P2;Temp;Humidity;BMP_temperature;BMP_pressure;BME280_temperature;BME280_humidity;BME280_pressure;Samples;Min_cycle;Max_cycle;Signal;HPM_P1;HPM_P2
2023/04/03 00:01:08;;;;;;;11.98;6.22;;;-0.90;99.90;;;;;;5055467;28;20024;-83
2023/04/03 00:03:35;;;;;;;11.23;6.35;;;-0.70;99.90;;;;;;5055916;28;20086;-83
2023/04/03 00:06:01;;;;;;;11.80;5.97;;;-0.80;99.90;;;;;;5055574;28;20082;-83
2023/04/03 00:08:27;;;;;;;10.30;6.63;;;-0.80;99.90;;;;;;5072373;28;20024;-82
2023/04/03 00:10:52;;;;;;;12.80;6.10;;;-0.90;99.90;;;;;;5072244;28;20063;-83
2023/04/03 00:13:18;;;;;;;10.40;6.13;;;-0.90;99.90;;;;;;5072179;28;20060;-83
2023/04/03 00:15:44;;;;;;;11.70;6.32;;;-0.90;99.90;;;;;;5055466;28;20028;-83
2023/04/03 00:18:10;;;;;;;16.00;6.72;;;-0.90;99.90;;;;;;5072194;28;20036;-82
2023/04/03 00:20:36;;;;;;;11.30;5.75;;;-1.00;99.90;;;;;;5055212;28;20483;-83
2023/04/03 00:23:02;;;;;;;10.43;6.07;;;-1.10;99.90;;;;;;5055404;28;20098;-82
2023/04/03 00:25:28;;;;;;;10.32;6.18;;;-1.10;99.90;;;;;;5055184;28;20066;-83
2023/04/03 00:27:54;;;;;;;16.13;6.43;;;-1.20;99.90;;;;;;5073913;28;20020;-83
2023/04/03 00:30:21;;;;;;;14.30;6.47;;;-1.20;99.90;;;;;;5055485;28;20032;-83
2023/04/03 00:32:49;;;;;;;8.65;6.15;;;-1.20;99.90;;;;;;5071827;28;20025;-83
2023/04/03 00:35:18;;;;;;;13.38;6.00;;;-1.30;99.90;;;;;;5054885;28;20497;-83
2023/04/03 00:37:44;;;;;;;11.20;6.68;;;-1.30;99.90;;;;;;5055266;28;20028;-83
2023/04/03 00:40:13;;;;;;;8.95;5.82;;;-1.30;99.90;;;;;;5055112;28;20028;-83
2023/04/03 00:42:43;;;;;;;11.70;5.72;;;-1.30;99.90;;;;;;5055104;28;20412;-83
2023/04/03 00:45:25;;;;;;;9.35;5.80;;;-1.40;99.90;;;;;;5055542;28;20021;-83
2023/04/03 00:47:51;;;;;;;11.50;5.95;;;-1.40;99.90;;;;;;5054798;28;20120;-82
2023/04/03 00:50:17;;;;;;;15.57;5.60;;;-1.40;99.90;;;;;;5070934;28;20428;-82
2023/04/03 00:52:46;;;;;;;13.77;5.93;;;-1.30;99.90;;;;;;5054213;28;20032;-82
2023/04/03 00:55:14;;;;;;;14.40;5.90;;;-1.40;99.90;;;;;;5071466;28;20021;-82
2023/04/03 00:57:41;;;;;;;11.45;6.00;;;-1.40;99.90;;;;;;5071424;28;20368;-83
2023/04/03 01:00:31;;;;;;;8.20;5.20;;;-1.30;99.90;;;;;;5072261;28;20032;-82
2023/04/03 01:02:57;;;;;;;16.88;6.05;;;-1.30;99.90;;;;;;5053269;28;20087;-82
2023/04/03 01:05:24;;;;;;;12.32;5.40;;;-1.40;99.90;;;;;;5071946;28;20090;-82
2023/04/03 01:07:52;;;;;;;15.43;5.22;;;-1.40;99.90;;;;;;5054695;28;20036;-83
2023/04/03 01:10:45;;;;;;;11.65;6.00;;;-1.50;99.90;;;;;;5071663;28;20035;-83
2023/04/03 01:13:38;;;;;;;10.20;5.72;;;-1.50;99.90;;;;;;5068739;28;20028;-83
2023/04/03 01:16:06;;;;;;;18.48;5.97;;;-1.50;99.90;;;;;;5052799;28;20036;-82
2023/04/03 01:18:35;;;;;;;15.10;6.20;;;-1.50;99.90;;;;;;5071926;28;20028;-82
2023/04/03 01:21:13;;;;;;;14.43;5.97;;;-1.40;99.90;;;;;;5067059;28;20032;-82
2023/04/03 01:23:42;;;;;;;9.82;5.95;;;-1.30;99.90;;;;;;5071899;28;20020;-83
2023/04/03 01:26:12;;;;;;;8.90;5.05;;;-1.20;99.90;;;;;;5071699;28;20063;-83
2023/04/03 01:28:38;;;;;;;10.65;5.88;;;-1.20;99.90;;;;;;5071918;28;20037;-82
2023/04/03 01:31:10;;;;;;;11.50;5.68;;;-1.10;99.90;;;;;;5065118;28;20017;-82
2023/04/03 01:33:37;;;;;;;8.15;5.30;;;-1.00;99.90;;;;;;5070570;28;20036;-82
2023/04/03 01:36:03;;;;;;;10.25;5.45;;;-0.90;99.90;;;;;;5071029;28;20044;-82
2023/04/03 01:38:29;;;;;;;7.90;5.03;;;-0.80;99.90;;;;;;5054929;28;20021;-82
2023/04/03 01:40:55;;;;;;;10.30;5.20;;;-0.80;99.90;;;;;;5054609;28;20066;-82
2023/04/03 01:43:21;;;;;;;7.50;5.15;;;-0.70;99.90;;;;;;5071003;28;20361;-82
2023/04/03 01:46:37;;;;;;;7.78;4.45;;;-0.70;99.90;;;;;;5071896;28;20017;-82
2023/04/03 01:49:21;;;;;;;12.77;4.28;;;-0.60;99.90;;;;;;5066572;28;20025;-82
2023/04/03 01:51:47;;;;;;;8.38;4.40;;;-0.70;99.90;;;;;;5047828;28;20029;-82
2023/04/03 01:54:14;;;;;;;9.95;5.07;;;-0.80;99.90;;;;;;5070865;28;20028;-82
2023/04/03 01:56:40;;;;;;;8.43;4.63;;;-0.90;99.90;;;;;;5054534;28;20033;-82
2023/04/03 01:59:05;;;;;;;8.85;4.80;;;-1.00;99.90;;;;;;5070655;28;20044;-82
2023/04/03 02:01:31;;;;;;;10.00;4.93;;;-1.10;99.90;;;;;;5073249;28;20030;-82
2023/04/03 02:03:57;;;;;;;7.10;4.60;;;-1.20;99.90;;;;;;5065638;28;20043;-82
2023/04/03 02:06:22;;;;;;;9.05;4.65;;;-1.30;99.90;;;;;;5084851;28;20016;-82
2023/04/03 02:08:48;;;;;;;8.90;5.10;;;-1.40;99.90;;;;;;5058745;28;20028;-82
2023/04/03 02:11:14;;;;;;;12.95;5.80;;;-1.40;99.90;;;;;;5071894;28;20790;-82
2023/04/03 02:13:40;;;;;;;12.13;5.40;;;-1.50;99.90;;;;;;5076084;28;20040;-82
2023/04/03 02:16:07;;;;;;;14.35;6.60;;;-1.60;99.90;;;;;;5070854;28;20423;-82
2023/04/03 02:18:33;;;;;;;16.30;7.25;;;-1.70;99.90;;;;;;5074351;28;20509;-82
2023/04/03 02:20:59;;;;;;;14.90;5.85;;;-1.70;99.90;;;;;;5074594;28;20029;-83
2023/04/03 02:23:25;;;;;;;9.95;5.80;;;-1.70;99.90;;;;;;5057904;28;20025;-82
2023/04/03 02:25:51;;;;;;;16.20;7.60;;;-1.80;99.90;;;;;;5074529;28;20032;-82
2023/04/03 02:28:17;;;;;;;26.85;10.02;;;-1.80;99.90;;;;;;5074026;28;20028;-82
2023/04/03 02:30:42;;;;;;;25.90;11.82;;;-1.90;99.90;;;;;;5057311;28;20036;-82
2023/04/03 02:33:10;;;;;;;21.10;9.40;;;-2.00;99.90;;;;;;5057717;28;20082;-82
2023/04/03 02:35:36;;;;;;;18.17;9.52;;;-2.00;99.90;;;;;;5074429;28;20032;-82
2023/04/03 02:38:30;;;;;;;19.98;8.88;;;-2.00;99.90;;;;;;5057267;28;20480;-82
2023/04/03 02:41:01;;;;;;;12.13;7.40;;;-2.10;99.90;;;;;;5074301;28;20121;-83
2023/04/03 02:43:27;;;;;;;14.90;7.27;;;-2.10;99.90;;;;;;5073934;28;20494;-82
2023/04/03 02:45:53;;;;;;;13.23;6.38;;;-2.20;99.90;;;;;;5056845;28;20472;-82
2023/04/03 02:48:18;;;;;;;15.45;8.32;;;-2.20;99.90;;;;;;5057207;28;20017;-82
2023/04/03 02:50:44;;;;;;;19.65;10.00;;;-2.20;99.90;;;;;;5074142;28;20123;-82
2023/04/03 02:53:10;;;;;;;16.17;7.03;;;-2.20;99.90;;;;;;5057471;28;20028;-82
2023/04/03 02:55:36;;;;;;;14.65;7.05;;;-2.20;99.90;;;;;;5074503;28;20035;-82
2023/04/03 02:58:17;;;;;;;11.38;6.50;;;-2.20;99.90;;;;;;5074250;28;20031;-82
2023/04/03 03:00:43;;;;;;;12.55;5.95;;;-2.00;99.90;;;;;;5057408;28;20121;-82
2023/04/03 03:03:08;;;;;;;15.05;7.18;;;-2.00;99.90;;;;;;5074323;28;20444;-83
2023/04/03 03:05:34;;;;;;;13.43;7.07;;;-2.00;99.90;;;;;;5074267;28;20031;-82
2023/04/03 03:08:00;;;;;;;17.77;8.95;;;-2.10;99.90;;;;;;5074026;28;20035;-82
2023/04/03 03:10:26;;;;;;;16.65;6.65;;;-2.00;99.90;;;;;;5057459;28;20028;-83
2023/04/03 03:12:51;;;;;;;13.20;6.40;;;-1.90;99.90;;;;;;5072163;28;20067;-82
2023/04/03 03:16:03;;;;;;;16.95;6.57;;;-1.80;99.90;;;;;;5073409;28;20434;-82
2023/04/03 03:18:29;;;;;;;;;;;-1.80;99.90;;;;;;5072748;28;20032;-82
2023/04/03 03:20:59;;;;;;;13.27;6.72;;;-1.80;99.90;;;;;;5073684;28;19912;-82
2023/04/03 03:23:27;;;;;;;12.88;6.45;;;-1.80;99.90;;;;;;5056732;28;20019;-82
2023/04/03 03:26:02;;;;;;;13.18;7.10;;;-1.80;99.90;;;;;;5073414;28;20031;-82
2023/04/03 03:28:28;;;;;;;11.15;7.00;;;-1.80;99.90;;;;;;5072943;28;20020;-82
2023/04/03 03:30:54;;;;;;;12.35;6.75;;;-1.90;99.90;;;;;;5073248;28;20028;-82
2023/04/03 03:33:21;;;;;;;18.63;7.95;;;-2.00;99.90;;;;;;5055922;28;20119;-82
2023/04/03 03:35:47;;;;;;;17.20;8.20;;;-2.00;99.90;;;;;;5056544;28;20068;-82
2023/04/03 03:38:13;;;;;;;14.15;7.43;;;-2.00;99.90;;;;;;5073072;28;20031;-82
2023/04/03 03:40:38;;;;;;;14.30;7.93;;;-1.90;99.90;;;;;;5074421;28;20060;-82
2023/04/03 03:43:05;;;;;;;14.95;6.90;;;-1.80;99.90;;;;;;5072732;28;20349;-82
2023/04/03 03:45:31;;;;;;;12.25;7.47;;;-1.90;99.90;;;;;;5072933;28;20021;-83
2023/04/03 03:47:57;;;;;;;12.77;7.55;;;-1.80;99.90;;;;;;5073141;28;20024;-82
2023/04/03 03:50:23;;;;;;;10.68;7.32;;;-1.80;99.90;;;;;;5073199;28;20093;-82
2023/04/03 03:52:49;;;;;;;13.88;7.32;;;-1.80;99.90;;;;;;5056457;28;20483;-83
2023/04/03 03:55:15;;;;;;;11.63;7.85;;;-1.80;99.90;;;;;;5072868;28;20029;-82
2023/04/03 03:57:41;;;;;;;24.40;8.45;;;-1.80;99.90;;;;;;5056698;28;20021;-82
2023/04/03 04:00:08;;;;;;;12.88;7.25;;;-1.90;99.90;;;;;;5080479;28;20033;-82
2023/04/03 04:02:41;;;;;;;9.52;6.82;;;-1.80;99.90;;;;;;5075462;28;20020;-81
2023/04/03 04:05:09;;;;;;;13.82;7.65;;;-1.80;99.90;;;;;;5074295;28;20047;-83
2023/04/03 04:07:36;;;;;;;12.68;7.72;;;-1.80;99.90;;;;;;5074205;28;20020;-82
2023/04/03 04:10:03;;;;;;;16.95;7.43;;;-1.70;99.90;;;;;;5056697;28;20020;-82
2023/04/03 04:12:30;;;;;;;18.67;7.38;;;-1.70;99.90;;;;;;5056512;28;20028;-82
2023/04/03 04:14:56;;;;;;;15.70;7.82;;;-1.70;99.90;;;;;;5057279;28;20535;-82
2023/04/03 04:17:23;;;;;;;14.50;7.78;;;-1.80;99.90;;;;;;5056918;28;20089;-82
2023/04/03 04:19:49;;;;;;;14.15;8.15;;;-1.80;99.90;;;;;;5056845;28;20020;-82
2023/04/03 04:22:16;;;;;;;24.52;8.70;;;-1.80;99.90;;;;;;5073408;28;20024;-82
2023/04/03 04:24:42;;;;;;;14.85;8.23;;;-1.80;99.90;;;;;;5056752;28;20107;-83
2023/04/03 04:27:08;;;;;;;16.90;8.45;;;-1.90;99.90;;;;;;5056598;28;20031;-83
2023/04/03 04:29:37;;;;;;;17.50;10.43;;;-1.90;99.90;;;;;;5090655;28;20103;-82
2023/04/03 04:32:04;;;;;;;23.35;9.32;;;-2.00;99.90;;;;;;5072995;28;20024;-82
2023/04/03 04:34:30;;;;;;;14.30;7.50;;;-1.90;99.90;;;;;;5073859;28;20081;-82
2023/04/03 04:36:57;;;;;;;10.88;6.80;;;-1.80;99.90;;;;;;5056292;28;20043;-83
2023/04/03 04:39:25;;;;;;;19.45;7.15;;;-1.80;99.90;;;;;;5064884;28;20074;-82
2023/04/03 04:41:51;;;;;;;14.65;7.57;;;-1.70;99.90;;;;;;5056145;28;20035;-83
2023/04/03 04:44:18;;;;;;;17.80;7.47;;;-1.80;99.90;;;;;;5072603;28;20009;-83
2023/04/03 04:47:12;;;;;;;17.08;8.10;;;-1.80;99.90;;;;;;5056423;28;20423;-82
2023/04/03 04:49:38;;;;;;;24.45;12.93;;;-1.80;99.90;;;;;;5073284;28;20024;-82
2023/04/03 04:52:05;;;;;;;15.50;9.00;;;-1.70;99.90;;;;;;5055681;28;20082;-82
2023/04/03 04:54:31;;;;;;;17.33;10.23;;;-1.60;99.90;;;;;;5072389;28;20028;-82
2023/04/03 04:56:58;;;;;;;15.40;9.15;;;-1.50;99.90;;;;;;5054958;28;20111;-83
2023/04/03 04:59:25;;;;;;;14.75;8.55;;;-1.40;99.90;;;;;;5071514;28;20032;-82
2023/04/03 05:01:53;;;;;;;18.17;9.18;;;-1.40;99.90;;;;;;5085638;28;20415;-85
2023/04/03 05:04:25;;;;;;;21.08;10.18;;;-1.30;99.90;;;;;;5059274;28;20075;-85
2023/04/03 05:06:56;;;;;;;20.42;10.35;;;-1.20;99.90;;;;;;5051311;28;20029;-85
2023/04/03 05:09:26;;;;;;;26.13;10.80;;;-1.20;99.90;;;;;;5056365;28;20556;-85
2023/04/03 05:11:52;;;;;;;27.02;11.85;;;-1.20;99.90;;;;;;5073015;28;20383;-84
2023/04/03 05:14:22;;;;;;;23.73;12.07;;;-1.20;99.90;;;;;;5056475;28;20111;-85
2023/04/03 05:16:52;;;;;;;29.58;13.02;;;-1.10;99.90;;;;;;5072821;28;20077;-85
2023/04/03 05:19:20;;;;;;;25.02;13.10;;;-1.10;99.90;;;;;;5056064;28;20052;-85
2023/04/03 05:21:46;;;;;;;23.63;13.35;;;-1.00;99.90;;;;;;5056587;28;20024;-85
2023/04/03 05:24:16;;;;;;;28.73;14.40;;;-0.90;99.90;;;;;;5055719;28;20040;-85
2023/04/03 05:26:43;;;;;;;27.42;14.00;;;-0.90;99.90;;;;;;5055316;28;20020;-85
2023/04/03 05:29:11;;;;;;;25.85;14.15;;;-0.80;99.90;;;;;;5055993;28;20028;-85
2023/04/03 05:31:37;;;;;;;31.35;15.02;;;-0.80;99.90;;;;;;5072334;28;20024;-85
2023/04/03 05:34:03;;;;;;;28.13;15.95;;;-0.80;99.90;;;;;;5055591;28;20050;-85
2023/04/03 05:36:31;;;;;;;31.95;15.45;;;-0.70;99.90;;;;;;5058753;28;20029;-85
2023/04/03 05:39:02;;;;;;;32.60;15.52;;;-0.70;99.90;;;;;;5060835;28;20029;-85
2023/04/03 05:41:28;;;;;;;30.27;15.82;;;-0.70;99.90;;;;;;5059503;28;20037;-85
2023/04/03 05:43:54;;;;;;;28.15;15.65;;;-0.60;99.90;;;;;;5076126;28;20035;-85
2023/04/03 05:46:22;;;;;;;30.85;16.20;;;-0.60;99.90;;;;;;5059186;28;20028;-84
2023/04/03 05:48:52;;;;;;;35.40;17.15;;;-0.50;99.90;;;;;;5059891;28;20048;-85
2023/04/03 05:51:28;;;;;;;33.78;16.38;;;-0.40;99.90;;;;;;5060309;28;20028;-85
2023/04/03 05:54:20;;;;;;;37.25;16.08;;;-0.30;99.90;;;;;;5059814;28;20431;-85
2023/04/03 05:56:47;;;;;;;34.38;16.33;;;-0.20;99.90;;;;;;5052977;28;20020;-85
2023/04/03 05:59:13;;;;;;;33.97;16.27;;;-0.20;99.90;;;;;;5075909;28;20044;-85
2023/04/03 06:01:39;;;;;;;33.00;15.95;;;-0.10;99.90;;;;;;5058809;28;20028;-85
2023/04/03 06:04:05;;;;;;;31.17;17.10;;;-0.10;99.90;;;;;;5051020;28;20016;-84
2023/04/03 06:06:45;;;;;;;33.78;16.90;;;-0.10;99.90;;;;;;5074247;28;20051;-85
2023/04/03 06:09:11;;;;;;;35.33;17.65;;;0.00;99.90;;;;;;5053893;28;20044;-85
2023/04/03 06:11:37;;;;;;;37.58;17.42;;;0.00;99.90;;;;;;5053812;28;20028;-85
2023/04/03 06:14:03;;;;;;;28.27;15.20;;;0.10;99.90;;;;;;5084650;28;20061;-85
2023/04/03 06:16:29;;;;;;;30.92;16.10;;;0.10;99.90;;;;;;5071153;28;20441;-85
2023/04/03 06:18:55;;;;;;;29.30;16.30;;;0.20;99.90;;;;;;5052654;28;20029;-85
2023/04/03 06:21:22;;;;;;;27.40;14.30;;;0.30;99.90;;;;;;5071982;28;20602;-85
2023/04/03 06:23:48;;;;;;;27.95;15.02;;;0.40;99.90;;;;;;5055880;28;20021;-85
2023/04/03 06:26:14;;;;;;;27.92;14.43;;;0.40;99.90;;;;;;5054995;28;20035;-86
2023/04/03 06:28:40;;;;;;;28.48;13.10;;;0.50;99.90;;;;;;5056032;28;20012;-84
2023/04/03 06:31:06;;;;;;;26.20;12.35;;;0.50;99.90;;;;;;5056260;28;20055;-85
2023/04/03 06:33:31;;;;;;;22.85;13.52;;;0.60;99.90;;;;;;5072653;28;20538;-84
2023/04/03 06:36:03;;;;;;;24.30;13.05;;;0.60;99.90;;;;;;5053087;28;20035;-86
2023/04/03 06:38:29;;;;;;;19.33;11.30;;;0.70;99.90;;;;;;5070045;28;20172;-87
2023/04/03 06:40:55;;;;;;;23.48;10.70;;;0.70;99.90;;;;;;5043609;28;20021;-87
2023/04/03 06:43:22;;;;;;;21.13;11.63;;;0.70;99.90;;;;;;5058645;28;20456;-86
2023/04/03 06:45:48;;;;;;;33.47;14.45;;;0.60;99.90;;;;;;5060666;28;20029;-86
2023/04/03 06:48:15;;;;;;;16.20;10.52;;;0.70;99.90;;;;;;5056227;28;20044;-88
2023/04/03 06:50:41;;;;;;;18.38;11.40;;;0.70;99.90;;;;;;5051892;28;20028;-87
2023/04/03 06:53:07;;;;;;;19.92;12.10;;;0.70;99.90;;;;;;5063139;28;20044;-87
2023/04/03 06:55:33;;;;;;;18.33;11.43;;;0.80;99.90;;;;;;5086480;28;20163;-87
2023/04/03 06:57:59;;;;;;;24.80;11.40;;;0.80;99.90;;;;;;5077101;28;20024;-86
2023/04/03 07:00:25;;;;;;;17.15;10.38;;;0.90;99.90;;;;;;5071200;28;20100;-86
2023/04/03 07:02:52;;;;;;;17.42;9.68;;;1.00;99.90;;;;;;5062574;28;20357;-87
2023/04/03 07:05:18;;;;;;;17.45;9.75;;;1.10;99.90;;;;;;5058132;28;20026;-87
2023/04/03 07:07:44;;;;;;;20.33;9.50;;;1.20;99.90;;;;;;5058193;28;20016;-86
2023/04/03 07:10:11;;;;;;;16.10;8.45;;;1.10;99.90;;;;;;5075750;28;20036;-86
2023/04/03 07:12:37;;;;;;;21.10;8.98;;;1.10;99.90;;;;;;5074756;28;20067;-86
2023/04/03 07:15:05;;;;;;;17.88;8.23;;;1.10;99.90;;;;;;5054688;28;20025;-87
2023/04/03 07:17:32;;;;;;;25.00;10.32;;;1.10;99.90;;;;;;5068987;28;20052;-88
2023/04/03 07:19:57;;;;;;;14.73;7.63;;;1.10;99.90;;;;;;5075046;28;20024;-88
2023/04/03 07:22:23;;;;;;;19.42;7.80;;;1.20;99.90;;;;;;5077022;28;20037;-88
2023/04/03 07:24:49;;;;;;;14.15;7.70;;;1.10;99.90;;;;;;5060108;28;20029;-88
2023/04/03 07:27:17;;;;;;;15.63;7.97;;;1.10;99.90;;;;;;5063857;28;20464;-88
2023/04/03 07:29:43;;;;;;;8.85;6.68;;;1.20;99.90;;;;;;5038112;28;20029;-88
2023/04/03 07:32:12;;;;;;;12.65;7.72;;;1.20;99.90;;;;;;5063441;28;20025;-88
2023/04/03 07:34:37;;;;;;;11.52;6.68;;;1.20;99.90;;;;;;5065784;28;20021;-88
2023/04/03 07:37:04;;;;;;;13.23;7.22;;;1.30;99.90;;;;;;5069886;28;20035;-88
2023/04/03 07:39:30;;;;;;;15.23;6.70;;;1.20;99.90;;;;;;5080096;28;20797;-88
2023/04/03 07:41:56;;;;;;;15.10;6.05;;;1.30;99.90;;;;;;5058504;28;20032;-86
2023/04/03 07:44:22;;;;;;;8.43;6.07;;;1.30;99.90;;;;;;5076054;28;20090;-88
2023/04/03 07:46:48;;;;;;;13.85;6.50;;;1.40;99.90;;;;;;5064166;28;20500;-87
2023/04/03 07:49:14;;;;;;;11.07;6.05;;;1.50;99.90;;;;;;5065605;28;20086;-88
2023/04/03 07:51:40;;;;;;;14.15;5.90;;;1.50;99.90;;;;;;5056537;28;20032;-87
2023/04/03 07:54:06;;;;;;;14.02;6.28;;;1.60;99.90;;;;;;5050952;28;20032;-87
2023/04/03 07:56:33;;;;;;;10.50;5.07;;;1.70;99.90;;;;;;5074606;28;20035;-87
2023/04/03 07:58:58;;;;;;;8.48;5.25;;;1.80;99.90;;;;;;5076927;28;20040;-87
2023/04/03 08:01:24;;;;;;;10.90;5.38;;;1.80;99.90;;;;;;5061981;28;20028;-87
2023/04/03 08:03:50;;;;;;;10.73;4.88;;;1.80;99.90;;;;;;5057350;28;20051;-87
2023/04/03 08:06:16;;;;;;;9.95;5.10;;;1.90;99.90;;;;;;5074450;28;20024;-87
2023/04/03 08:08:43;;;;;;;9.90;5.43;;;1.90;99.90;;;;;;5080228;28;20012;-88
2023/04/03 08:11:10;;;;;;;13.85;5.13;;;2.10;99.90;;;;;;5071483;28;20634;-87
2023/04/03 08:13:36;;;;;;;12.07;4.75;;;2.10;99.90;;;;;;5056957;28;20110;-87
2023/04/03 08:16:10;;;;;;;9.05;4.03;;;2.10;99.90;;;;;;5073223;28;20037;-87
2023/04/03 08:18:37;;;;;;;12.00;4.78;;;2.10;99.90;;;;;;5073395;28;20024;-87
2023/04/03 08:21:06;;;;;;;8.60;4.60;;;2.10;99.90;;;;;;5073380;28;20058;-87
2023/04/03 08:23:32;;;;;;;11.77;4.72;;;2.20;99.90;;;;;;5073401;28;20032;-87
2023/04/03 08:25:58;;;;;;;12.38;4.63;;;2.20;99.90;;;;;;5073031;28;20467;-88
2023/04/03 08:28:24;;;;;;;9.57;4.15;;;2.20;99.90;;;;;;5072598;28;20036;-87
2023/04/03 08:30:50;;;;;;;8.05;3.88;;;2.20;99.90;;;;;;5060809;28;20452;-87
2023/04/03 08:33:16;;;;;;;10.13;3.90;;;2.40;99.90;;;;;;5073455;28;20033;-86
2023/04/03 08:35:42;;;;;;;9.35;3.88;;;2.40;99.90;;;;;;5055945;28;20349;-87
2023/04/03 08:38:09;;;;;;;5.05;3.30;;;2.50;99.90;;;;;;5055859;28;20558;-87
2023/04/03 08:40:35;;;;;;;11.43;3.58;;;2.50;99.90;;;;;;5072513;28;20032;-87
2023/04/03 08:43:15;;;;;;;7.30;3.75;;;2.50;99.90;;;;;;5055862;28;20024;-87
2023/04/03 08:45:55;;;;;;;14.63;7.20;;;2.60;99.90;;;;;;5073484;28;20031;-86
2023/04/03 08:48:35;;;;;;;6.28;3.40;;;2.70;99.90;;;;;;5072810;28;20293;-87
2023/04/03 08:51:05;;;;;;;6.32;2.70;;;2.80;99.90;;;;;;5056589;28;20032;-87
2023/04/03 08:53:35;;;;;;;4.20;2.80;;;3.30;99.90;;;;;;5073640;28;20033;-87
2023/04/03 08:56:08;;;;;;;15.43;4.82;;;4.80;99.90;;;;;;5056687;28;20027;-87
2023/04/03 08:58:44;;;;;;;7.18;2.58;;;6.30;99.90;;;;;;5072878;28;20513;-87
2023/04/03 09:01:46;;;;;;;12.93;4.80;;;7.50;99.90;;;;;;5077945;28;20032;-87
2023/04/03 09:04:13;;;;;;;;;;;7.90;99.90;;;;;;5014317;28;20072;-88
2023/04/03 09:06:42;;;;;;;5.53;2.53;;;8.30;99.90;;;;;;5042768;28;19955;-87
2023/04/03 09:09:15;;;;;;;10.65;2.22;;;9.20;99.90;;;;;;5058499;28;20040;-87
2023/04/03 09:12:09;;;;;;;5.07;2.10;;;10.00;99.90;;;;;;5076417;28;20486;-87
2023/04/03 09:14:56;;;;;;;4.90;2.03;;;10.10;99.20;;;;;;5077745;28;20380;-87
2023/04/03 09:17:47;;;;;;;5.25;1.92;;;10.40;96.20;;;;;;5078049;28;20028;-86
2023/04/03 09:20:21;;;;;;;4.13;2.15;;;11.00;92.60;;;;;;5078075;28;20054;-88
2023/04/03 09:22:48;;;;;;;4.85;2.15;;;10.50;92.70;;;;;;5093919;28;20428;-88
2023/04/03 09:25:23;;;;;;;10.10;2.72;;;8.60;94.20;;;;;;5076733;28;20120;-88
2023/04/03 09:27:50;;;;;;;4.32;2.65;;;7.90;98.50;;;;;;5078552;28;20074;-87
2023/04/03 09:30:19;;;;;;;6.05;2.67;;;7.80;98.90;;;;;;5077653;28;20384;-88
2023/04/03 09:32:47;;;;;;;7.32;2.40;;;7.50;99.90;;;;;;5061239;28;20414;-88
2023/04/03 09:35:26;;;;;;;5.07;2.70;;;7.60;99.90;;;;;;5060729;28;20035;-88
2023/04/03 09:38:13;;;;;;;6.25;2.42;;;7.30;99.90;;;;;;5076192;28;20613;-88
2023/04/03 09:41:02;;;;;;;5.75;2.47;;;7.00;99.90;;;;;;5075960;28;20090;-88
2023/04/03 09:43:38;;;;;;;6.15;2.70;;;6.70;99.90;;;;;;5078386;28;20060;-87
2023/04/03 09:46:33;;;;;;;4.95;2.70;;;6.00;99.90;;;;;;5058425;28;20031;-87
2023/04/03 09:49:05;;;;;;;5.00;2.65;;;5.40;99.90;;;;;;5075424;28;20702;-88
2023/04/03 09:51:31;;;;;;;6.75;2.30;;;5.60;99.90;;;;;;5067395;28;20033;-88
2023/04/03 09:53:57;;;;;;;5.47;2.38;;;5.90;99.90;;;;;;5068232;28;20016;-88
2023/04/03 09:56:28;;;;;;;6.65;2.80;;;6.30;99.90;;;;;;5081124;28;20049;-88
2023/04/03 09:59:03;;;;;;;5.53;2.20;;;6.10;99.90;;;;;;5102555;28;20024;-88
2023/04/03 10:01:32;;;;;;;4.80;2.47;;;5.90;99.90;;;;;;5081821;28;20333;-89
2023/04/03 10:04:06;;;;;;;3.92;2.60;;;6.00;99.90;;;;;;5075559;28;20026;-86
2023/04/03 10:06:35;;;;;;;9.75;2.95;;;6.30;99.90;;;;;;5054781;28;20032;-88
2023/04/03 10:09:06;;;;;;;7.32;3.65;;;6.40;99.90;;;;;;5071901;28;20043;-88
2023/04/03 10:11:32;;;;;;;6.68;4.03;;;6.40;99.90;;;;;;5052306;28;20037;-89
2023/04/03 10:14:04;;;;;;;4.78;2.35;;;6.40;99.90;;;;;;5060055;28;20032;-88
2023/04/03 10:16:41;;;;;;;;;;;6.30;99.90;;;;;;5081504;28;20036;-88
2023/04/03 10:19:13;;;;;;;6.70;3.05;;;6.20;99.90;;;;;;5061573;28;19916;-89
2023/04/03 10:21:55;;;;;;;10.57;3.42;;;6.30;99.90;;;;;;5079572;28;20149;-88
2023/04/03 10:24:33;;;;;;;6.70;2.55;;;6.30;99.90;;;;;;5071034;28;20384;-88
2023/04/03 10:27:06;;;;;;;8.13;2.83;;;6.30;99.90;;;;;;5074872;28;20024;-89
2023/04/03 10:29:45;;;;;;;4.80;2.58;;;6.00;99.90;;;;;;5064542;28;20064;-88
2023/04/03 10:32:31;;;;;;;7.50;3.72;;;5.90;99.90;;;;;;5067806;28;20040;-87
2023/04/03 10:35:31;;;;;;;6.05;3.05;;;5.70;99.90;;;;;;5071249;28;20036;-88
2023/04/03 10:38:31;;;;;;;11.65;2.83;;;5.60;99.90;;;;;;5050752;28;20173;-88
2023/04/03 10:41:21;;;;;;;9.10;3.78;;;5.40;99.90;;;;;;5072990;28;20475;-88
2023/04/03 10:44:02;;;;;;;9.50;4.20;;;5.40;99.90;;;;;;5076009;28;20025;-88
2023/04/03 10:46:35;;;;;;;10.10;3.13;;;5.60;99.90;;;;;;5075222;28;20438;-88
2023/04/03 10:49:20;;;;;;;8.25;3.25;;;5.90;99.90;;;;;;5090709;28;20047;-88
2023/04/03 10:52:23;;;;;;;13.70;3.47;;;6.00;99.90;;;;;;5071320;28;20036;-88
2023/04/03 10:55:04;;;;;;;7.53;3.30;;;5.90;99.90;;;;;;5063912;28;20532;-88
2023/04/03 10:57:30;;;;;;;;;;;5.80;99.90;;;;;;5063826;28;20028;-89
2023/04/03 10:59:57;;;;;;;5.25;2.83;;;5.80;99.90;;;;;;5074709;28;20450;-88
2023/04/03 11:02:33;;;;;;;7.75;3.10;;;5.70;99.90;;;;;;5091762;28;20484;-89
2023/04/03 11:05:09;;;;;;;7.05;4.13;;;5.50;99.90;;;;;;5074771;28;20626;-88
2023/04/03 11:07:50;;;;;;;10.15;4.32;;;5.40;99.90;;;;;;5074838;28;20064;-89
2023/04/03 11:10:28;;;;;;;7.00;3.60;;;5.40;99.90;;;;;;5075212;28;20033;-88
2023/04/03 11:13:06;;;;;;;6.90;4.15;;;5.00;99.90;;;;;;5058687;28;20275;-88
2023/04/03 11:15:33;;;;;;;5.95;3.90;;;5.00;99.90;;;;;;5074383;28;20426;-89
2023/04/03 11:18:22;;;;;;;8.27;3.70;;;5.30;99.90;;;;;;5057537;28;20765;-89
2023/04/03 11:21:27;;;;;;;10.98;4.57;;;5.60;99.90;;;;;;5049713;28;20039;-88
2023/04/03 11:23:58;;;;;;;9.75;4.78;;;6.10;99.90;;;;;;5048512;28;20064;-89
2023/04/03 11:26:29;;;;;;;11.85;5.82;;;6.80;99.90;;;;;;5074431;28;20483;-88
2023/04/03 11:29:01;;;;;;;9.18;4.50;;;6.70;99.90;;;;;;5085058;28;20521;-89
2023/04/03 11:31:35;;;;;;;11.57;4.60;;;6.40;99.90;;;;;;5088151;28;20472;-88
2023/04/03 11:34:19;;;;;;;9.40;4.10;;;6.30;99.90;;;;;;5057275;28;20103;-88
2023/04/03 11:37:00;;;;;;;7.85;4.95;;;6.10;99.90;;;;;;5071366;28;20036;-89
2023/04/03 11:39:31;;;;;;;8.98;4.22;;;6.20;99.90;;;;;;5074384;28;20032;-88
2023/04/03 11:42:16;;;;;;;;;;;6.50;99.90;;;;;;5075429;28;20483;-88
2023/04/03 11:44:42;;;;;;;10.57;3.15;;;6.80;99.90;;;;;;5058215;28;20271;-88
2023/04/03 11:47:32;;;;;;;8.35;3.30;;;6.80;99.90;;;;;;5074122;28;20380;-89
2023/04/03 11:50:05;;;;;;;9.90;4.60;;;6.30;99.90;;;;;;5069568;28;20028;-89
2023/04/03 11:52:40;;;;;;;8.95;3.35;;;6.40;99.90;;;;;;5083003;28;20028;-88
2023/04/03 11:55:23;;;;;;;6.38;3.10;;;6.80;99.90;;;;;;5070063;28;20055;-88
2023/04/03 11:57:58;;;;;;;11.85;3.55;;;6.80;99.90;;;;;;5065748;28;20035;-88
2023/04/03 12:00:43;;;;;;;9.50;4.10;;;6.60;99.90;;;;;;5062724;28;20037;-87
2023/04/03 12:03:27;;;;;;;8.27;3.70;;;6.30;99.90;;;;;;5057877;28;20024;-87
2023/04/03 12:05:58;;;;;;;7.60;3.13;;;6.50;99.90;;;;;;5068691;28;20020;-88
2023/04/03 12:08:29;;;;;;;;;;;6.80;99.90;;;;;;5080345;28;20028;-88
2023/04/03 12:11:10;;;;;;;8.55;3.00;;;7.00;99.90;;;;;;5057871;28;19930;-88
2023/04/03 12:13:55;;;;;;;7.35;3.28;;;7.10;99.90;;;;;;5072435;28;20102;-88
2023/04/03 12:16:32;;;;;;;12.10;3.30;;;7.40;99.90;;;;;;5076008;28;20479;-88
2023/04/03 12:19:24;;;;;;;8.93;3.88;;;7.00;99.90;;;;;;5069838;28;20557;-87
2023/04/03 12:21:58;;;;;;;14.77;3.80;;;7.10;99.90;;;;;;5063455;28;20398;-88
2023/04/03 12:24:35;;;;;;;4.82;2.70;;;7.80;99.90;;;;;;5072610;28;20033;-89
2023/04/03 12:27:05;;;;;;;11.38;3.50;;;7.30;99.90;;;;;;5069636;28;20017;-87
2023/04/03 12:30:06;;;;;;;7.43;4.00;;;6.90;99.90;;;;;;5077534;28;20163;-87
2023/04/03 12:32:51;;;;;;;11.32;3.85;;;6.80;99.90;;;;;;5053186;28;20222;-88
2023/04/03 12:35:22;;;;;;;11.75;3.65;;;6.30;99.90;;;;;;5074472;28;20037;-87
2023/04/03 12:38:10;;;;;;;7.93;3.28;;;6.30;99.90;;;;;;5067086;28;20025;-89
2023/04/03 12:41:05;;;;;;;7.93;2.63;;;7.30;99.90;;;;;;5076439;28;20032;-88
2023/04/03 12:43:40;;;;;;;7.93;2.80;;;8.70;99.90;;;;;;5077760;28;20140;-88
2023/04/03 12:46:40;;;;;;;8.73;3.45;;;9.00;99.90;;;;;;5061895;28;20482;-88
2023/04/03 12:49:35;;;;;;;4.93;2.72;;;9.40;96.40;;;;;;5061685;28;20051;-88
2023/04/03 12:52:05;;;;;;;6.18;3.05;;;9.30;93.60;;;;;;5073028;28;20032;-88
2023/04/03 12:54:42;;;;;;;7.40;3.73;;;9.10;95.30;;;;;;5061136;28;20029;-88
2023/04/03 12:57:17;;;;;;;4.88;2.17;;;9.70;92.70;;;;;;5072806;28;20384;-88
2023/04/03 12:59:45;;;;;;;8.68;3.58;;;9.30;91.10;;;;;;5070784;28;20035;-79
2023/04/03 13:02:31;;;;;;;6.57;3.05;;;9.50;93.80;;;;;;5087710;28;20096;-77
2023/04/03 13:05:04;;;;;;;6.25;3.40;;;8.90;91.20;;;;;;5081792;28;20032;-78
2023/04/03 13:07:37;;;;;;;4.93;3.10;;;8.70;93.10;;;;;;5070994;28;20024;-78